createdAt,value
2022-11-15T00:01:20.092Z,8.80
2022-11-15T00:03:48.543Z,9.00
2022-11-15T00:06:16.526Z,8.90
2022-11-15T00:08:44.525Z,8.90
2022-11-15T00:11:14.475Z,8.80
2022-11-15T00:13:42.655Z,8.90
2022-11-15T00:16:12.064Z,9.00
2022-11-15T00:18:45.167Z,9.00
2022-11-15T00:21:17.170Z,9.00
2022-11-15T00:23:45.163Z,9.00
2022-11-15T00:26:15.534Z,9.10
2022-11-15T00:28:44.065Z,9.10
2022-11-15T00:31:15.785Z,8.90
2022-11-15T00:33:46.903Z,8.90
2022-11-15T00:36:15.153Z,8.90
2022-11-15T00:38:43.513Z,9.00
2022-11-15T00:41:11.558Z,9.10
2022-11-15T00:43:41.081Z,9.10
2022-11-15T00:46:10.505Z,9.20
2022-11-15T00:48:38.934Z,9.20
2022-11-15T00:51:08.359Z,9.10
2022-11-15T00:53:36.585Z,9.00
2022-11-15T00:56:04.878Z,8.90
2022-11-15T00:58:32.964Z,9.10
2022-11-15T01:01:09.218Z,9.20
2022-11-15T01:03:37.616Z,9.20
2022-11-15T01:06:08.224Z,9.30
2022-11-15T01:08:36.751Z,9.40
2022-11-15T01:11:06.815Z,9.30
2022-11-15T01:13:36.117Z,9.30
2022-11-15T01:16:10.233Z,9.40
2022-11-15T01:18:38.845Z,9.40
2022-11-15T01:21:10.620Z,9.30
2022-11-15T01:23:38.900Z,9.20
2022-11-15T01:26:09.397Z,9.10
2022-11-15T01:28:40.294Z,9.20
2022-11-15T01:31:14.092Z,9.40
2022-11-15T01:33:42.447Z,9.50
2022-11-15T01:36:15.854Z,9.60
2022-11-15T01:38:44.142Z,9.40
2022-11-15T01:41:19.157Z,9.10
2022-11-15T01:43:49.406Z,9.20
2022-11-15T01:46:29.220Z,9.20
2022-11-15T01:49:00.383Z,9.40
2022-11-15T01:51:32.868Z,9.50
2022-11-15T01:54:05.066Z,9.60
2022-11-15T01:56:38.576Z,9.60
2022-11-15T01:59:09.574Z,9.70
2022-11-15T02:01:37.619Z,9.70
2022-11-15T02:04:13.777Z,9.70
2022-11-15T02:06:44.836Z,9.80
2022-11-15T02:09:14.365Z,9.90
2022-11-15T02:11:42.840Z,9.90
2022-11-15T02:14:12.633Z,10.10
2022-11-15T02:16:54.180Z,9.90
2022-11-15T02:19:42.758Z,9.80
2022-11-15T02:22:34.211Z,10.00
2022-11-15T02:25:39.822Z,10.00
2022-11-15T02:28:46.615Z,10.00
2022-11-15T02:31:26.582Z,9.90
2022-11-15T02:34:04.162Z,9.80
2022-11-15T02:36:42.161Z,10.00
2022-11-15T02:39:19.704Z,10.10
2022-11-15T02:41:55.394Z,10.10
2022-11-15T02:44:29.018Z,10.10
2022-11-15T02:47:15.047Z,10.00
2022-11-15T02:49:48.206Z,9.80
2022-11-15T02:52:18.617Z,9.90
2022-11-15T02:54:57.046Z,10.10
2022-11-15T02:57:39.640Z,10.00
2022-11-15T03:00:10.669Z,10.10
2022-11-15T03:03:11.811Z,10.10
2022-11-15T03:05:47.254Z,10.00
2022-11-15T03:08:25.157Z,9.90
2022-11-15T03:11:05.948Z,10.10
2022-11-15T03:13:42.031Z,10.20
2022-11-15T03:16:14.411Z,10.10
2022-11-15T03:18:47.664Z,10.20
2022-11-15T03:21:16.978Z,10.40
2022-11-15T03:23:46.349Z,10.20
2022-11-15T03:26:16.363Z,10.10
2022-11-15T03:28:50.890Z,10.10
2022-11-15T03:31:38.642Z,10.20
2022-11-15T03:34:13.469Z,10.30
2022-11-15T03:36:41.729Z,10.40
2022-11-15T03:39:14.050Z,10.40
2022-11-15T03:41:50.865Z,10.30
2022-11-15T03:44:33.900Z,10.20
2022-11-15T03:47:08.619Z,10.40
2022-11-15T03:49:41.646Z,10.30
2022-11-15T03:52:12.079Z,10.30
2022-11-15T03:54:54.470Z,10.40
2022-11-15T03:57:22.792Z,10.50
2022-11-15T03:59:50.814Z,10.60
2022-11-15T04:02:19.081Z,10.70
2022-11-15T04:04:48.455Z,10.50
2022-11-15T04:07:16.538Z,10.40
2022-11-15T04:09:58.677Z,10.40
2022-11-15T04:12:32.517Z,10.30
2022-11-15T04:15:11.372Z,10.50
2022-11-15T04:17:41.986Z,10.40
2022-11-15T04:20:32.194Z,10.30
2022-11-15T04:23:19.653Z,10.20
2022-11-15T04:25:49.582Z,10.30
2022-11-15T04:28:17.656Z,10.40
2022-11-15T04:30:45.804Z,10.40
2022-11-15T04:33:13.930Z,10.50
2022-11-15T04:35:44.224Z,10.30
2022-11-15T04:38:12.521Z,10.30
2022-11-15T04:40:40.830Z,10.40
2022-11-15T04:43:08.876Z,10.40
2022-11-15T04:45:36.860Z,10.60
2022-11-15T04:48:05.270Z,10.50
2022-11-15T04:50:33.269Z,10.40
2022-11-15T04:53:02.683Z,10.30
2022-11-15T04:55:30.659Z,10.40
2022-11-15T04:58:02.626Z,10.40
2022-11-15T05:00:31.441Z,10.40
2022-11-15T05:03:16.355Z,10.40
2022-11-15T05:05:44.546Z,10.30
2022-11-15T05:08:13.895Z,10.20
2022-11-15T05:10:41.884Z,10.20
2022-11-15T05:13:09.876Z,10.20
2022-11-15T05:15:37.882Z,10.30
2022-11-15T05:18:05.907Z,10.30
2022-11-15T05:20:34.441Z,10.40
2022-11-15T05:23:02.499Z,10.30
2022-11-15T05:25:31.844Z,10.20
2022-11-15T05:27:59.933Z,10.30
2022-11-15T05:30:27.913Z,10.40
2022-11-15T05:32:56.202Z,10.30
2022-11-15T05:35:33.597Z,10.20
2022-11-15T05:38:01.662Z,10.10
2022-11-15T05:40:32.247Z,10.20
2022-11-15T05:43:02.378Z,10.20
2022-11-15T05:45:31.037Z,10.20
2022-11-15T05:48:02.658Z,10.20
2022-11-15T05:50:30.721Z,10.20
2022-11-15T05:53:04.685Z,10.20
2022-11-15T05:55:35.285Z,10.20
2022-11-15T05:58:03.952Z,10.10
2022-11-15T06:00:32.174Z,10.20
2022-11-15T06:03:00.201Z,10.30
2022-11-15T06:05:28.333Z,10.20
2022-11-15T06:07:59.746Z,10.20
2022-11-15T06:10:28.255Z,10.30
2022-11-15T06:13:01.225Z,10.30
2022-11-15T06:15:29.565Z,10.10
2022-11-15T06:17:59.394Z,9.60
2022-11-15T06:20:27.917Z,9.40
2022-11-15T06:22:59.948Z,9.30
2022-11-15T06:25:28.530Z,9.40
2022-11-15T06:27:58.574Z,9.40
2022-11-15T06:30:29.260Z,9.20
2022-11-15T06:33:05.029Z,9.40
2022-11-15T06:35:36.128Z,9.60
2022-11-15T06:38:06.388Z,9.70
2022-11-15T06:40:36.950Z,9.70
2022-11-15T06:43:05.570Z,9.80
2022-11-15T06:45:35.162Z,10.00
2022-11-15T06:48:03.259Z,10.20
2022-11-15T06:50:31.226Z,10.40
2022-11-15T06:53:04.064Z,10.50
2022-11-15T06:55:32.190Z,10.60
2022-11-15T06:58:00.240Z,10.50
2022-11-15T07:00:28.193Z,10.50
2022-11-15T07:02:58.534Z,10.40
2022-11-15T07:05:26.501Z,10.20
2022-11-15T07:07:56.495Z,10.30
2022-11-15T07:10:26.218Z,10.50
2022-11-15T07:12:55.073Z,10.60
2022-11-15T07:15:26.270Z,10.60
2022-11-15T07:17:54.262Z,10.50
2022-11-15T07:20:23.590Z,10.60
2022-11-15T07:22:53.301Z,10.60
2022-11-15T07:25:21.257Z,10.60
2022-11-15T07:27:57.275Z,10.70
2022-11-15T07:30:26.153Z,10.80
2022-11-15T07:32:55.854Z,10.90
2022-11-15T07:35:28.221Z,10.70
2022-11-15T07:37:58.013Z,10.90
2022-11-15T07:40:27.047Z,10.70
2022-11-15T07:42:55.168Z,10.80
2022-11-15T07:45:23.916Z,11.00
2022-11-15T07:47:55.023Z,10.90
2022-11-15T07:50:24.689Z,11.00
2022-11-15T07:52:56.801Z,10.90
2022-11-15T07:55:25.099Z,10.90
2022-11-15T07:57:53.065Z,10.80
2022-11-15T08:00:25.333Z,11.10
2022-11-15T08:02:53.466Z,10.90
2022-11-15T08:05:21.536Z,10.90
2022-11-15T08:07:52.751Z,10.90
2022-11-15T08:10:21.560Z,11.10
2022-11-15T08:12:49.623Z,11.20
2022-11-15T08:15:17.799Z,11.30
2022-11-15T08:17:45.779Z,11.30
2022-11-15T08:20:13.767Z,11.30
2022-11-15T08:22:41.780Z,11.20
2022-11-15T08:25:12.239Z,11.10
2022-11-15T08:27:40.295Z,11.10
2022-11-15T08:30:09.796Z,11.20
2022-11-15T08:32:37.924Z,11.30
2022-11-15T08:35:07.854Z,11.30
2022-11-15T08:37:35.935Z,11.30
2022-11-15T08:40:04.261Z,11.30
2022-11-15T08:42:33.725Z,11.20
2022-11-15T08:45:01.742Z,11.20
2022-11-15T08:47:29.796Z,11.20
2022-11-15T08:49:58.020Z,11.30
2022-11-15T08:52:26.247Z,11.40
2022-11-15T08:54:54.377Z,11.40
2022-11-15T08:57:22.375Z,11.40
2022-11-15T08:59:53.069Z,11.50
2022-11-15T09:02:21.117Z,11.50
2022-11-15T09:04:49.449Z,11.60
2022-11-15T09:07:18.193Z,11.70
2022-11-15T09:09:46.228Z,11.80
2022-11-15T09:12:14.288Z,11.80
2022-11-15T09:14:42.313Z,11.80
2022-11-15T09:17:12.201Z,11.80
2022-11-15T09:19:40.228Z,11.80
2022-11-15T09:22:09.206Z,11.70
2022-11-15T09:24:37.546Z,11.80
2022-11-15T09:27:05.554Z,11.80
2022-11-15T09:29:34.896Z,12.10
2022-11-15T09:32:02.891Z,12.20
2022-11-15T09:34:32.226Z,12.30
2022-11-15T09:37:00.207Z,12.30
2022-11-15T09:39:28.262Z,12.40
2022-11-15T09:42:23.988Z,12.50
2022-11-15T09:45:13.716Z,12.50
2022-11-15T09:47:59.752Z,12.70
2022-11-15T09:50:37.963Z,12.90
2022-11-15T09:53:06.049Z,12.90
2022-11-15T09:55:46.124Z,12.90
2022-11-15T09:58:27.136Z,13.10
2022-11-15T10:00:55.417Z,12.90
2022-11-15T10:03:29.742Z,12.90
2022-11-15T10:06:03.655Z,13.10
2022-11-15T10:08:48.675Z,13.20
2022-11-15T10:11:36.600Z,13.30
2022-11-15T10:14:13.063Z,13.40
2022-11-15T10:17:17.229Z,13.30
2022-11-15T10:20:05.021Z,13.10
2022-11-15T10:22:41.980Z,13.00
2022-11-15T10:25:21.540Z,13.00
2022-11-15T10:27:59.129Z,13.30
2022-11-15T10:30:38.944Z,13.60
2022-11-15T10:33:29.065Z,13.70
2022-11-15T10:36:21.823Z,13.70
2022-11-15T10:38:59.415Z,13.60
2022-11-15T10:41:38.881Z,13.60
2022-11-15T10:44:26.245Z,13.50
2022-11-15T10:47:37.732Z,13.30
2022-11-15T10:50:28.736Z,13.10
2022-11-15T10:52:57.089Z,13.20
2022-11-15T10:55:29.911Z,13.30
2022-11-15T10:58:04.884Z,13.30
2022-11-15T11:00:39.443Z,13.30
2022-11-15T11:03:22.174Z,13.50
2022-11-15T11:05:50.202Z,13.50
2022-11-15T11:08:26.410Z,13.60
2022-11-15T11:11:03.101Z,13.80
2022-11-15T11:13:34.818Z,13.60
2022-11-15T11:16:26.295Z,13.70
2022-11-15T11:19:08.504Z,13.90
2022-11-15T11:21:47.634Z,14.00
2022-11-15T11:24:26.410Z,14.20
2022-11-15T11:27:15.034Z,14.20
2022-11-15T11:30:11.062Z,14.00
2022-11-15T11:33:04.748Z,13.90
2022-11-15T11:35:41.708Z,13.70
2022-11-15T11:38:29.935Z,13.60
2022-11-15T11:41:09.509Z,13.50
2022-11-15T11:43:57.783Z,13.40
2022-11-15T11:46:57.880Z,13.40
2022-11-15T11:49:36.001Z,13.40
2022-11-15T11:52:11.739Z,13.40
2022-11-15T11:54:49.288Z,13.60
2022-11-15T11:57:26.191Z,13.70
2022-11-15T12:00:02.877Z,13.60
2022-11-15T12:02:36.752Z,13.50
2022-11-15T12:05:15.554Z,13.50
2022-11-15T12:07:46.604Z,13.60
2022-11-15T12:10:22.787Z,13.40
2022-11-15T12:13:01.124Z,13.40
2022-11-15T12:15:35.243Z,13.50
2022-11-15T12:18:03.939Z,13.60
2022-11-15T12:20:39.862Z,13.60
2022-11-15T12:23:14.514Z,13.70
2022-11-15T12:25:49.512Z,13.80
2022-11-15T12:28:23.070Z,13.80
2022-11-15T12:30:57.192Z,13.60
2022-11-15T12:33:38.748Z,13.60
2022-11-15T12:36:14.577Z,13.70
2022-11-15T12:39:01.203Z,13.50
2022-11-15T12:41:31.311Z,13.50
2022-11-15T12:44:00.228Z,13.40
2022-11-15T12:47:25.138Z,13.60
2022-11-15T12:49:55.474Z,13.60
2022-11-15T12:52:23.466Z,13.60
2022-11-15T12:55:01.171Z,13.70
2022-11-15T12:57:46.532Z,13.70
2022-11-15T13:00:47.880Z,13.60
2022-11-15T13:03:26.691Z,13.60
2022-11-15T13:06:39.090Z,13.80
2022-11-15T13:09:55.259Z,13.80
2022-11-15T13:12:58.843Z,13.70
2022-11-15T13:15:48.245Z,13.70
2022-11-15T13:18:38.324Z,13.90
2022-11-15T13:21:39.518Z,14.00
2022-11-15T13:24:13.646Z,14.00
2022-11-15T13:26:42.443Z,13.90
2022-11-15T13:29:21.762Z,14.10
2022-11-15T13:31:50.485Z,14.00
2022-11-15T13:37:33.351Z,13.90
2022-11-15T13:40:22.813Z,13.90
2022-11-15T13:42:50.915Z,13.90
2022-11-15T13:45:20.463Z,13.60
2022-11-15T13:47:55.576Z,13.60
2022-11-15T13:50:29.548Z,13.60
2022-11-15T13:53:01.918Z,13.50
2022-11-15T13:55:33.627Z,13.60
2022-11-15T13:58:06.865Z,13.70
2022-11-15T14:00:39.639Z,13.50
2022-11-15T14:03:20.007Z,13.50
2022-11-15T14:06:09.827Z,13.50
2022-11-15T14:08:38.191Z,13.60
2022-11-15T14:11:18.662Z,13.70
2022-11-15T14:14:13.818Z,13.50
2022-11-15T14:16:44.062Z,13.30
2022-11-15T14:19:15.272Z,13.40
2022-11-15T14:22:29.072Z,13.40
2022-11-15T14:25:19.747Z,13.30
2022-11-15T14:28:18.386Z,13.10
2022-11-15T14:30:50.902Z,13.10
2022-11-15T14:33:25.024Z,13.20
2022-11-15T14:35:53.684Z,13.20
2022-11-15T14:38:21.809Z,13.00
2022-11-15T14:40:50.183Z,13.00
2022-11-15T14:43:19.558Z,13.10
2022-11-15T14:45:47.539Z,13.20
2022-11-15T14:48:15.522Z,13.20
2022-11-15T14:50:43.647Z,13.40
2022-11-15T14:53:17.582Z,13.50
2022-11-15T14:55:46.194Z,13.50
2022-11-15T14:58:14.167Z,13.60
2022-11-15T15:00:43.958Z,13.80
2022-11-15T15:03:12.097Z,13.70
2022-11-15T15:05:42.532Z,13.50
2022-11-15T15:08:11.831Z,13.50
2022-11-15T15:10:42.986Z,13.50
2022-11-15T15:13:19.551Z,13.50
2022-11-15T15:15:50.272Z,13.60
2022-11-15T15:18:19.172Z,13.60
2022-11-15T15:20:56.871Z,13.50
2022-11-15T15:23:26.450Z,13.50
2022-11-15T15:25:54.647Z,13.20
2022-11-15T15:28:22.657Z,13.40
2022-11-15T15:30:54.670Z,13.50
2022-11-15T15:33:22.660Z,13.50
2022-11-15T15:35:50.637Z,13.60
2022-11-15T15:38:20.103Z,13.60
2022-11-15T15:40:50.551Z,13.30
2022-11-15T15:43:19.552Z,13.40
2022-11-15T15:45:48.162Z,13.40
2022-11-15T15:48:18.841Z,13.40
2022-11-15T15:50:46.891Z,13.40
2022-11-15T15:53:15.395Z,13.30
2022-11-15T15:55:43.537Z,13.20
2022-11-15T15:58:11.538Z,13.20
2022-11-15T16:00:40.200Z,13.20
2022-11-15T16:03:08.213Z,13.00
2022-11-15T16:05:37.565Z,13.10
2022-11-15T16:08:06.183Z,13.10
2022-11-15T16:10:36.163Z,12.90
2022-11-15T16:13:04.952Z,13.00
2022-11-15T16:15:34.159Z,13.00
2022-11-15T16:18:04.015Z,13.20
2022-11-15T16:20:38.045Z,13.00
2022-11-15T16:23:09.581Z,12.80
2022-11-15T16:25:46.209Z,12.80
2022-11-15T16:28:25.830Z,12.80
2022-11-15T16:31:03.192Z,12.70
2022-11-15T16:33:31.694Z,12.70
2022-11-15T16:36:01.293Z,12.70
2022-11-15T16:38:29.388Z,12.70
2022-11-15T16:40:57.437Z,12.60
2022-11-15T16:43:26.192Z,12.70
2022-11-15T16:45:54.151Z,12.70
2022-11-15T16:48:27.089Z,12.70
2022-11-15T16:50:58.163Z,12.70
2022-11-15T16:53:28.977Z,12.70
2022-11-15T16:55:58.252Z,12.70
2022-11-15T16:58:26.452Z,12.80
2022-11-15T17:00:56.038Z,12.80
2022-11-15T17:03:25.107Z,12.50
2022-11-15T17:05:53.649Z,12.30
2022-11-15T17:08:24.107Z,12.40
2022-11-15T17:10:54.095Z,12.60
2022-11-15T17:13:22.147Z,12.60
2022-11-15T17:15:50.583Z,12.50
2022-11-15T17:18:19.400Z,12.60
2022-11-15T17:20:47.354Z,12.50
2022-11-15T17:23:15.809Z,12.20
2022-11-15T17:25:43.837Z,12.30
2022-11-15T17:28:13.179Z,12.50
2022-11-15T17:30:44.075Z,12.60
2022-11-15T17:33:12.216Z,12.30
2022-11-15T17:35:40.216Z,12.40
2022-11-15T17:38:08.419Z,12.30
2022-11-15T17:40:36.392Z,12.40
2022-11-15T17:43:06.847Z,12.50
2022-11-15T17:45:42.171Z,12.60
2022-11-15T17:48:10.173Z,12.50
2022-11-15T17:50:38.161Z,12.20
2022-11-15T17:53:06.135Z,12.10
2022-11-15T17:55:34.160Z,12.10
2022-11-15T17:58:02.229Z,12.10
2022-11-15T18:00:30.199Z,12.30
2022-11-15T18:02:59.766Z,12.40
2022-11-15T18:05:27.729Z,12.40
2022-11-15T18:07:55.723Z,12.20
2022-11-15T18:10:23.703Z,12.20
2022-11-15T18:12:51.682Z,12.30
2022-11-15T18:15:21.277Z,12.40
2022-11-15T18:17:49.311Z,12.50
2022-11-15T18:20:19.431Z,12.60
2022-11-15T18:22:47.446Z,12.70
2022-11-15T18:25:15.977Z,12.60
2022-11-15T18:27:44.113Z,12.50
2022-11-15T18:30:13.573Z,12.40
2022-11-15T18:32:41.967Z,12.40
2022-11-15T18:35:10.372Z,12.30
2022-11-15T18:37:39.694Z,12.30
2022-11-15T18:40:09.824Z,12.30
2022-11-15T18:42:37.808Z,12.40
2022-11-15T18:45:07.012Z,12.40
2022-11-15T18:47:35.131Z,12.40
2022-11-15T18:50:03.103Z,12.40
2022-11-15T18:52:31.122Z,12.50
2022-11-15T18:55:00.463Z,12.50
2022-11-15T18:57:28.487Z,12.50
2022-11-15T18:59:56.520Z,12.40
2022-11-15T19:02:24.541Z,12.20
2022-11-15T19:04:52.577Z,12.20
2022-11-15T19:07:20.649Z,12.30
2022-11-15T19:09:49.109Z,12.50
2022-11-15T19:12:18.481Z,12.40
2022-11-15T19:14:46.491Z,12.40
2022-11-15T19:17:15.655Z,12.40
2022-11-15T19:19:43.658Z,12.50
2022-11-15T19:22:11.672Z,12.40
2022-11-15T19:24:39.651Z,12.40
2022-11-15T19:27:07.582Z,12.50
2022-11-15T19:29:36.912Z,12.40
2022-11-15T19:32:05.304Z,12.40
2022-11-15T19:34:33.391Z,12.50
2022-11-15T19:37:03.155Z,12.30
2022-11-15T19:39:31.200Z,12.20
2022-11-15T19:41:59.215Z,12.40
2022-11-15T19:44:27.299Z,12.50
2022-11-15T19:46:56.668Z,12.40
2022-11-15T19:49:26.743Z,12.40
2022-11-15T19:51:54.745Z,12.30
2022-11-15T19:54:22.755Z,12.30
2022-11-15T19:56:51.716Z,12.50
2022-11-15T19:59:19.736Z,12.40
2022-11-15T20:01:47.780Z,12.40
2022-11-15T20:04:17.349Z,12.30
2022-11-15T20:06:45.713Z,12.50
2022-11-15T20:09:15.828Z,12.50
2022-11-15T20:11:43.995Z,12.40
2022-11-15T20:14:13.084Z,12.50
2022-11-15T20:16:41.858Z,12.40
2022-11-15T20:19:12.153Z,12.50
2022-11-15T20:21:41.477Z,12.40
2022-11-15T20:24:10.223Z,12.20
2022-11-15T20:26:38.826Z,12.20
2022-11-15T20:29:07.135Z,12.20
2022-11-15T20:31:35.417Z,12.20
2022-11-15T20:34:03.429Z,12.20
2022-11-15T20:36:31.564Z,12.30
2022-11-15T20:39:01.395Z,12.20
2022-11-15T20:41:30.833Z,12.20
2022-11-15T20:43:59.439Z,12.10
2022-11-15T20:46:27.586Z,12.10
2022-11-15T20:48:55.549Z,12.20
2022-11-15T20:51:23.632Z,12.20
2022-11-15T20:53:52.785Z,12.20
2022-11-15T20:56:23.247Z,12.30
2022-11-15T20:58:53.247Z,12.10
2022-11-15T21:01:23.789Z,12.10
2022-11-15T21:03:52.933Z,12.10
2022-11-15T21:06:21.553Z,12.10
2022-11-15T21:09:07.966Z,12.10
2022-11-15T21:11:55.369Z,12.10
2022-11-15T21:14:23.664Z,12.20
2022-11-15T21:16:51.667Z,12.00
2022-11-15T21:19:24.110Z,12.00
2022-11-15T21:21:56.458Z,12.00
2022-11-15T21:24:24.601Z,12.00
2022-11-15T21:26:54.780Z,12.10
2022-11-15T21:29:22.797Z,12.00
2022-11-15T21:31:53.058Z,11.90
2022-11-15T21:34:21.715Z,11.90
2022-11-15T21:36:49.716Z,12.00
2022-11-15T21:39:17.769Z,12.00
2022-11-15T21:41:45.843Z,12.00
2022-11-15T21:44:15.250Z,11.90
2022-11-15T21:46:43.351Z,11.90
2022-11-15T21:49:11.685Z,11.80
2022-11-15T21:51:39.770Z,11.70
2022-11-15T21:54:08.076Z,11.80
2022-11-15T21:56:36.037Z,11.80
2022-11-15T21:59:04.142Z,11.80
2022-11-15T22:01:50.993Z,12.00
2022-11-15T22:04:19.086Z,11.90
2022-11-15T22:06:50.218Z,11.90
2022-11-15T22:09:18.230Z,11.80
2022-11-15T22:11:46.764Z,12.00
2022-11-15T22:14:14.801Z,12.00
2022-11-15T22:16:44.271Z,11.70
2022-11-15T22:19:12.443Z,11.80
2022-11-15T22:21:43.077Z,11.80
2022-11-15T22:24:11.252Z,11.70
2022-11-15T22:26:39.394Z,11.80
2022-11-15T22:29:07.699Z,11.80
2022-11-15T22:31:35.887Z,11.90
2022-11-15T22:34:05.516Z,12.00
2022-11-15T22:36:47.225Z,11.90
2022-11-15T22:39:21.912Z,11.80
2022-11-15T22:41:50.070Z,11.80
2022-11-15T22:44:18.282Z,11.80
2022-11-15T22:46:46.456Z,11.70
2022-11-15T22:49:16.023Z,11.80
2022-11-15T22:51:44.281Z,11.90
2022-11-15T22:54:12.442Z,11.90
2022-11-15T22:56:40.655Z,11.90
2022-11-15T22:59:09.099Z,12.00
2022-11-15T23:01:37.296Z,11.90
2022-11-15T23:04:05.802Z,11.80
2022-11-15T23:06:35.456Z,11.70
2022-11-15T23:09:03.621Z,11.80
2022-11-15T23:11:57.597Z,11.90
2022-11-15T23:14:26.369Z,11.80
2022-11-15T23:16:53.540Z,11.60
2022-11-15T23:19:21.880Z,11.80
2022-11-15T23:22:08.916Z,11.90
2022-11-15T23:24:37.126Z,11.90
2022-11-15T23:27:09.136Z,11.70
2022-11-15T23:29:52.839Z,11.70
2022-11-15T23:32:38.522Z,11.80
2022-11-15T23:35:07.742Z,11.70
2022-11-15T23:37:37.379Z,11.80
2022-11-15T23:40:07.293Z,11.80
2022-11-15T23:42:35.460Z,11.90
2022-11-15T23:45:03.616Z,11.90
2022-11-15T23:47:31.780Z,11.80
2022-11-15T23:50:00.009Z,11.80
2022-11-15T23:52:28.238Z,11.80
2022-11-15T23:54:57.828Z,11.80
2022-11-15T23:57:26.046Z,11.90
2022-11-15T23:59:55.067Z,11.80
